Time;durP1;ratioP1;P1;durP2;ratioP2;P2;SDS_P1;SDS_P2;PMS_P1;PMS_P2;Temp;Humidity;BMP_temperature;BMP_pressure;BME280_temperature;BME280_humidity;BME280_pressure;Samples;Min_cycle;Max_cycle;Signal;HPM_P1;HPM_P2
2024/01/10 00:01:09;;;;;;;3.58;0.90;;;-4.40;99.90;;;;;;5050339;28;20048;-67
2024/01/10 00:03:35;;;;;;;1.23;1.23;;;-4.30;99.90;;;;;;5066772;28;20044;-67
2024/01/10 00:06:00;;;;;;;3.92;1.33;;;-4.40;99.90;;;;;;5079210;28;20042;-67
2024/01/10 00:08:26;;;;;;;1.25;0.90;;;-4.40;99.90;;;;;;5063186;28;20037;-68
2024/01/10 00:10:54;;;;;;;0.47;0.47;;;-4.40;99.90;;;;;;5057271;28;20754;-67
2024/01/10 00:13:20;;;;;;;1.15;1.00;;;-4.40;99.90;;;;;;5067874;28;20388;-68
2024/01/10 00:15:46;;;;;;;4.55;1.95;;;-4.40;99.90;;;;;;5055006;28;20442;-68
2024/01/10 00:18:12;;;;;;;1.65;1.55;;;-4.40;99.90;;;;;;5053972;28;20045;-68
2024/01/10 00:20:37;;;;;;;1.65;1.25;;;-4.50;99.90;;;;;;5052773;28;20064;-67
2024/01/10 00:23:03;;;;;;;0.50;0.50;;;-4.50;99.90;;;;;;5050075;28;20132;-67
2024/01/10 00:25:28;;;;;;;1.65;1.55;;;-4.50;99.90;;;;;;5067282;28;20040;-67
2024/01/10 00:27:54;;;;;;;1.48;1.38;;;-4.40;99.90;;;;;;5063264;28;20036;-67
2024/01/10 00:30:21;;;;;;;1.52;1.38;;;-4.40;99.90;;;;;;5065941;28;20039;-67
2024/01/10 00:32:46;;;;;;;1.15;1.15;;;-4.50;99.90;;;;;;5059508;28;20040;-67
2024/01/10 00:35:12;;;;;;;2.33;1.55;;;-4.50;99.90;;;;;;5057931;28;20036;-68
2024/01/10 00:37:37;;;;;;;5.28;1.30;;;-4.40;99.90;;;;;;5061031;28;20131;-67
2024/01/10 00:40:03;;;;;;;1.13;0.85;;;-4.50;99.90;;;;;;5066484;28;20081;-68
2024/01/10 00:42:29;;;;;;;2.10;1.55;;;-4.50;99.90;;;;;;5056498;28;20060;-67
2024/01/10 00:44:54;;;;;;;1.05;1.05;;;-4.50;99.90;;;;;;5060735;28;20491;-67
2024/01/10 00:47:20;;;;;;;6.60;1.30;;;-4.50;99.90;;;;;;5065072;28;20071;-68
2024/01/10 00:49:45;;;;;;;1.05;0.95;;;-4.50;99.90;;;;;;5065850;28;20096;-68
2024/01/10 00:52:11;;;;;;;1.45;1.35;;;-4.50;99.90;;;;;;5089333;28;20434;-68
2024/01/10 00:54:36;;;;;;;1.50;1.40;;;-4.50;99.90;;;;;;5067903;28;20071;-68
2024/01/10 00:57:02;;;;;;;4.95;1.55;;;-4.50;99.90;;;;;;5044958;28;20472;-67
2024/01/10 00:59:28;;;;;;;1.33;1.25;;;-4.50;99.90;;;;;;5067284;28;20119;-68
2024/01/10 01:01:53;;;;;;;5.20;1.85;;;-4.50;99.90;;;;;;5067262;28;20041;-68
2024/01/10 01:04:19;;;;;;;1.42;1.33;;;-4.50;99.90;;;;;;5068504;28;20480;-68
2024/01/10 01:06:44;;;;;;;6.38;1.90;;;-4.50;99.90;;;;;;5064671;28;20044;-68
2024/01/10 01:09:10;;;;;;;0.50;0.50;;;-4.50;99.90;;;;;;5068280;28;20475;-68
2024/01/10 01:11:35;;;;;;;1.70;1.10;;;-4.50;99.90;;;;;;5067078;28;20032;-68
2024/01/10 01:14:01;;;;;;;2.50;2.20;;;-4.50;99.90;;;;;;5087643;28;20080;-68
2024/01/10 01:16:26;;;;;;;2.55;1.08;;;-4.50;99.90;;;;;;5096486;28;20036;-68
2024/01/10 01:18:52;;;;;;;3.22;2.15;;;-4.50;99.90;;;;;;5049246;28;20048;-68
2024/01/10 01:21:17;;;;;;;1.75;1.65;;;-4.50;99.90;;;;;;5061499;28;20045;-68
2024/01/10 01:23:43;;;;;;;5.95;1.45;;;-4.60;99.90;;;;;;5064289;28;20044;-68
2024/01/10 01:26:09;;;;;;;0.85;0.85;;;-4.60;99.90;;;;;;5049317;28;20047;-68
2024/01/10 01:28:34;;;;;;;3.45;1.20;;;-4.60;99.90;;;;;;5063828;28;20045;-68
2024/01/10 01:31:00;;;;;;;3.40;0.93;;;-4.60;99.90;;;;;;5074536;28;20033;-68
2024/01/10 01:33:26;;;;;;;3.25;1.58;;;-4.60;99.90;;;;;;5058657;28;20454;-68
2024/01/10 01:35:53;;;;;;;0.68;0.68;;;-4.60;99.90;;;;;;5071133;28;20025;-68
2024/01/10 01:38:18;;;;;;;0.43;0.43;;;-4.70;99.90;;;;;;5063148;28;20376;-68
2024/01/10 01:40:44;;;;;;;0.63;0.63;;;-4.70;99.90;;;;;;5068844;28;20105;-68
2024/01/10 01:43:24;;;;;;;0.57;0.38;;;-4.70;99.90;;;;;;5053104;28;20494;-68
2024/01/10 01:45:55;;;;;;;1.70;1.40;;;-4.70;99.90;;;;;;5050706;28;20045;-68
2024/01/10 01:48:22;;;;;;;1.63;1.52;;;-4.70;99.90;;;;;;5067823;28;20076;-68
2024/01/10 01:50:50;;;;;;;0.82;0.80;;;-4.70;99.90;;;;;;5069087;28;20491;-68
2024/01/10 01:53:17;;;;;;;1.90;1.70;;;-4.70;99.90;;;;;;5060625;28;20515;-68
2024/01/10 01:55:44;;;;;;;1.67;1.58;;;-4.70;99.90;;;;;;5060250;28;20025;-68
2024/01/10 01:58:12;;;;;;;2.35;1.10;;;-4.70;99.90;;;;;;5062958;28;20040;-68
2024/01/10 02:00:38;;;;;;;0.85;0.85;;;-4.80;99.90;;;;;;5041719;28;20506;-68
2024/01/10 02:03:06;;;;;;;5.38;1.77;;;-4.70;99.90;;;;;;5064560;28;20079;-68
2024/01/10 02:05:32;;;;;;;1.35;1.30;;;-4.80;99.90;;;;;;5065936;28;20056;-68
2024/01/10 02:07:58;;;;;;;4.57;1.23;;;-4.80;99.90;;;;;;5066804;28;20041;-68
2024/01/10 02:10:23;;;;;;;1.10;1.02;;;-4.80;99.90;;;;;;5064618;28;20132;-68
2024/01/10 02:12:49;;;;;;;0.85;0.85;;;-4.80;99.90;;;;;;5064463;28;20205;-68
2024/01/10 02:15:16;;;;;;;1.23;0.93;;;-4.80;99.90;;;;;;5061764;28;20091;-68
2024/01/10 02:17:42;;;;;;;1.05;0.95;;;-4.80;99.90;;;;;;5089821;28;20068;-68
2024/01/10 02:20:17;;;;;;;2.13;1.98;;;-4.80;99.90;;;;;;5062170;28;20079;-68
2024/01/10 02:22:43;;;;;;;1.30;1.20;;;-4.80;99.90;;;;;;5067261;28;20040;-68
2024/01/10 02:25:13;;;;;;;0.82;0.77;;;-4.80;99.90;;;;;;5070201;28;20081;-69
2024/01/10 02:27:39;;;;;;;0.43;0.43;;;-4.80;99.90;;;;;;5062609;28;20041;-68
2024/01/10 02:30:06;;;;;;;0.73;0.73;;;-4.80;99.90;;;;;;5064467;28;20422;-68
2024/01/10 02:32:32;;;;;;;0.75;0.60;;;-4.80;99.90;;;;;;5063844;28;20127;-68
2024/01/10 02:34:58;;;;;;;1.02;0.70;;;-4.80;99.90;;;;;;5065647;28;20077;-69
2024/01/10 02:37:24;;;;;;;1.13;1.13;;;-4.80;99.90;;;;;;5061684;28;20076;-68
2024/01/10 02:39:50;;;;;;;1.17;1.08;;;-4.90;99.90;;;;;;5070146;28;20549;-68
2024/01/10 02:42:15;;;;;;;0.38;0.38;;;-4.90;99.90;;;;;;5067170;28;20044;-68
2024/01/10 02:44:41;;;;;;;1.17;0.80;;;-4.90;99.90;;;;;;5058882;28;20037;-68
2024/01/10 02:47:07;;;;;;;1.75;1.13;;;-4.90;99.90;;;;;;5064718;28;20040;-69
2024/01/10 02:49:33;;;;;;;1.17;0.52;;;-4.90;99.90;;;;;;5063406;28;20032;-69
2024/01/10 02:51:59;;;;;;;1.35;0.85;;;-4.90;99.90;;;;;;5069016;28;20165;-68
2024/01/10 02:54:25;;;;;;;1.55;1.45;;;-4.90;99.90;;;;;;5065450;28;20118;-68
2024/01/10 02:56:51;;;;;;;3.53;0.75;;;-4.90;99.90;;;;;;5063243;28;20489;-68
2024/01/10 02:59:17;;;;;;;1.95;1.42;;;-5.00;99.90;;;;;;5061302;28;20159;-68
2024/01/10 03:01:43;;;;;;;1.80;1.48;;;-5.00;99.90;;;;;;5062274;28;20395;-68
2024/01/10 03:04:09;;;;;;;0.95;0.75;;;-4.90;99.90;;;;;;5064213;28;20613;-68
2024/01/10 03:06:34;;;;;;;1.48;1.15;;;-5.00;99.90;;;;;;5083085;28;20665;-68
2024/01/10 03:09:00;;;;;;;2.72;1.48;;;-4.90;99.90;;;;;;5063489;28;20072;-68
2024/01/10 03:11:25;;;;;;;1.38;0.60;;;-4.90;99.90;;;;;;5061342;28;20554;-69
2024/01/10 03:14:10;;;;;;;2.97;2.05;;;-4.90;99.90;;;;;;5066395;28;20035;-68
2024/01/10 03:16:35;;;;;;;0.88;0.88;;;-4.90;99.90;;;;;;5065000;28;20143;-68
2024/01/10 03:19:01;;;;;;;2.38;1.65;;;-4.90;99.90;;;;;;5063756;28;20542;-68
2024/01/10 03:21:27;;;;;;;2.35;1.27;;;-4.90;99.90;;;;;;5057815;28;20040;-68
2024/01/10 03:23:55;;;;;;;1.25;1.05;;;-4.90;99.90;;;;;;5068476;28;20039;-68
2024/01/10 03:26:20;;;;;;;0.20;0.20;;;-4.90;99.90;;;;;;5051654;28;20028;-68
2024/01/10 03:28:46;;;;;;;1.70;1.58;;;-4.80;99.90;;;;;;5062593;28;20490;-68
2024/01/10 03:31:12;;;;;;;1.70;1.60;;;-4.80;99.90;;;;;;5063334;28;20430;-68
2024/01/10 03:33:37;;;;;;;0.25;0.25;;;-4.90;99.90;;;;;;5067893;28;20547;-68
2024/01/10 03:36:03;;;;;;;1.20;0.75;;;-4.80;99.90;;;;;;5056623;28;20147;-68
2024/01/10 03:38:29;;;;;;;3.15;1.65;;;-4.90;99.90;;;;;;5066447;28;20047;-68
2024/01/10 03:40:54;;;;;;;0.50;0.50;;;-4.80;99.90;;;;;;5065841;28;20041;-67
2024/01/10 03:43:20;;;;;;;1.27;1.23;;;-4.80;99.90;;;;;;5055923;28;20040;-69
2024/01/10 03:45:45;;;;;;;2.22;1.30;;;-4.80;99.90;;;;;;5053166;28;20037;-68
2024/01/10 03:48:11;;;;;;;0.77;0.77;;;-4.80;99.90;;;;;;5066443;28;20040;-68
2024/01/10 03:50:36;;;;;;;0.50;0.50;;;-4.80;99.90;;;;;;5056469;28;20182;-69
2024/01/10 03:53:02;;;;;;;0.68;0.68;;;-4.80;99.90;;;;;;5068137;28;20032;-68
2024/01/10 03:55:28;;;;;;;0.40;0.40;;;-4.80;99.90;;;;;;5052866;28;20036;-68
2024/01/10 03:57:53;;;;;;;1.55;1.13;;;-4.90;99.90;;;;;;5064237;28;20039;-68
2024/01/10 04:00:20;;;;;;;1.85;0.95;;;-4.80;99.90;;;;;;5057594;28;20040;-68
2024/01/10 04:02:45;;;;;;;3.90;1.13;;;-4.90;99.90;;;;;;5063335;28;20055;-68
2024/01/10 04:05:12;;;;;;;1.88;1.08;;;-4.80;99.90;;;;;;5069502;28;20040;-68
2024/01/10 04:07:41;;;;;;;1.42;1.00;;;-4.90;99.90;;;;;;5065735;28;20064;-68
2024/01/10 04:10:10;;;;;;;1.77;1.50;;;-4.90;99.90;;;;;;5075344;28;20048;-68
2024/01/10 04:12:38;;;;;;;0.10;0.10;;;-4.90;99.90;;;;;;5091077;28;20094;-69
2024/01/10 04:15:04;;;;;;;0.43;0.43;;;-4.90;99.90;;;;;;5066108;28;20036;-68
2024/01/10 04:17:30;;;;;;;2.00;1.88;;;-4.90;99.90;;;;;;5058848;28;20446;-68
2024/01/10 04:19:56;;;;;;;1.40;0.55;;;-4.90;99.90;;;;;;5062827;28;20040;-68
2024/01/10 04:22:24;;;;;;;7.53;1.60;;;-4.90;99.90;;;;;;5065821;28;20094;-68
2024/01/10 04:24:50;;;;;;;2.75;0.40;;;-4.90;99.90;;;;;;5065813;28;20074;-68
2024/01/10 04:27:15;;;;;;;0.65;0.65;;;-4.90;99.90;;;;;;5059341;28;20584;-68
2024/01/10 04:29:41;;;;;;;2.42;1.58;;;-4.90;99.90;;;;;;5085751;28;20036;-68
2024/01/10 04:32:07;;;;;;;0.63;0.63;;;-4.90;99.90;;;;;;5055230;28;20056;-68
2024/01/10 04:34:32;;;;;;;0.80;0.75;;;-4.90;99.90;;;;;;5067242;28;20071;-68
2024/01/10 04:36:58;;;;;;;0.85;0.85;;;-4.90;99.90;;;;;;5051420;28;20122;-68
2024/01/10 04:39:24;;;;;;;1.73;1.23;;;-4.90;99.90;;;;;;5063316;28;20088;-68
2024/01/10 04:41:49;;;;;;;0.40;0.40;;;-5.00;99.90;;;;;;5074714;28;20040;-68
2024/01/10 04:44:15;;;;;;;0.85;0.85;;;-5.00;99.90;;;;;;5081922;28;20046;-68
2024/01/10 04:46:41;;;;;;;2.28;1.80;;;-5.00;99.90;;;;;;5065190;28;20387;-68
2024/01/10 04:49:07;;;;;;;0.63;0.63;;;-5.00;99.90;;;;;;5069958;28;20036;-68
2024/01/10 04:51:33;;;;;;;0.57;0.57;;;-5.00;99.90;;;;;;5070350;28;20499;-68
2024/01/10 04:53:59;;;;;;;5.32;1.00;;;-4.90;99.90;;;;;;5085451;28;20548;-68
2024/01/10 04:56:25;;;;;;;0.20;0.20;;;-5.00;99.90;;;;;;5092510;28;20098;-68
2024/01/10 04:58:50;;;;;;;1.10;1.05;;;-5.00;99.90;;;;;;5071191;28;20090;-68
2024/01/10 05:01:16;;;;;;;0.20;0.20;;;-5.00;99.90;;;;;;5066341;28;20406;-69
2024/01/10 05:03:42;;;;;;;0.47;0.47;;;-4.90;99.90;;;;;;5070948;28;20051;-68
2024/01/10 05:06:07;;;;;;;1.33;0.98;;;-4.90;99.90;;;;;;5065148;28;20055;-68
2024/01/10 05:08:33;;;;;;;2.17;2.00;;;-4.90;99.90;;;;;;5067427;28;20087;-68
2024/01/10 05:10:58;;;;;;;1.02;1.02;;;-4.90;99.90;;;;;;5074097;28;20086;-68
2024/01/10 05:13:24;;;;;;;8.88;3.30;;;-4.90;99.90;;;;;;5079230;28;20032;-69
2024/01/10 05:15:49;;;;;;;1.80;1.60;;;-4.90;99.90;;;;;;5065849;28;20041;-68
2024/01/10 05:18:16;;;;;;;2.08;0.85;;;-4.90;99.90;;;;;;5065530;28;20102;-68
2024/01/10 05:20:42;;;;;;;1.73;1.38;;;-4.90;99.90;;;;;;5064453;28;20580;-68
2024/01/10 05:23:07;;;;;;;2.13;1.55;;;-5.00;99.90;;;;;;5068114;28;20123;-67
2024/01/10 05:25:33;;;;;;;0.88;0.80;;;-5.00;99.90;;;;;;5068694;28;20048;-68
2024/01/10 05:27:59;;;;;;;3.22;1.83;;;-5.00;99.90;;;;;;5060951;28;20045;-68
2024/01/10 05:30:24;;;;;;;0.85;0.85;;;-5.00;99.90;;;;;;5061837;28;20522;-68
2024/01/10 05:32:50;;;;;;;2.25;1.08;;;-5.00;99.90;;;;;;5068279;28;20047;-68
2024/01/10 05:35:16;;;;;;;4.38;0.88;;;-5.00;99.90;;;;;;5069998;28;20097;-68
2024/01/10 05:37:42;;;;;;;2.97;1.75;;;-5.10;99.90;;;;;;5065118;28;20044;-68
2024/01/10 05:40:08;;;;;;;0.75;0.75;;;-5.00;99.90;;;;;;5061991;28;20521;-68
2024/01/10 05:42:34;;;;;;;1.27;1.17;;;-5.00;99.90;;;;;;5066579;28;20082;-68
2024/01/10 05:45:02;;;;;;;0.20;0.20;;;-5.00;99.90;;;;;;5066495;28;20045;-68
2024/01/10 05:47:27;;;;;;;0.40;0.40;;;-5.00;99.90;;;;;;5085704;28;20045;-68
2024/01/10 05:49:53;;;;;;;4.68;1.38;;;-5.00;99.90;;;;;;5066616;28;20051;-68
2024/01/10 05:52:20;;;;;;;1.02;0.73;;;-5.00;99.90;;;;;;5064167;28;20471;-68
2024/01/10 05:54:48;;;;;;;0.80;0.80;;;-5.10;99.90;;;;;;5068327;28;20044;-68
2024/01/10 05:57:14;;;;;;;1.75;1.23;;;-5.00;99.90;;;;;;5061165;28;20048;-69
2024/01/10 05:59:39;;;;;;;1.02;0.98;;;-5.00;99.90;;;;;;5095620;28;20063;-68
2024/01/10 06:02:05;;;;;;;1.08;0.98;;;-5.00;99.90;;;;;;5066921;28;20044;-68
2024/01/10 06:04:31;;;;;;;3.28;3.03;;;-5.00;99.90;;;;;;5066780;28;20044;-68
2024/01/10 06:07:00;;;;;;;10.40;2.92;;;-5.10;99.90;;;;;;5062587;28;20542;-68
2024/01/10 06:09:26;;;;;;;0.95;0.82;;;-5.10;99.90;;;;;;5065797;28;20037;-68
2024/01/10 06:11:51;;;;;;;1.67;1.40;;;-5.10;99.90;;;;;;5071456;28;20089;-68
2024/01/10 06:14:17;;;;;;;2.33;1.35;;;-5.10;99.90;;;;;;5062296;28;20498;-67
2024/01/10 06:16:44;;;;;;;0.50;0.50;;;-5.10;99.90;;;;;;5064669;28;20097;-67
2024/01/10 06:19:13;;;;;;;0.45;0.45;;;-5.10;99.90;;;;;;5068229;28;20123;-67
2024/01/10 06:21:39;;;;;;;0.47;0.47;;;-5.10;99.90;;;;;;5067969;28;20036;-68
2024/01/10 06:24:05;;;;;;;0.73;0.55;;;-5.10;99.90;;;;;;5058227;28;20033;-67
2024/01/10 06:26:30;;;;;;;4.57;2.25;;;-5.10;99.90;;;;;;5064959;28;20032;-67
2024/01/10 06:28:56;;;;;;;1.05;1.05;;;-5.10;99.90;;;;;;5062980;28;20037;-68
2024/01/10 06:31:21;;;;;;;4.68;1.42;;;-5.10;99.90;;;;;;5065068;28;20438;-67
2024/01/10 06:33:47;;;;;;;1.05;1.00;;;-5.00;99.90;;;;;;5067306;28;20044;-67
2024/01/10 06:36:13;;;;;;;1.23;1.13;;;-5.00;99.90;;;;;;5067698;28;20534;-68
2024/01/10 06:38:39;;;;;;;10.98;1.90;;;-5.00;99.90;;;;;;5063458;28;20119;-67
2024/01/10 06:41:09;;;;;;;1.02;0.95;;;-5.00;99.90;;;;;;5066864;28;20117;-67
2024/01/10 06:43:36;;;;;;;0.95;0.90;;;-5.00;99.90;;;;;;5065907;28;20127;-67
2024/01/10 06:46:03;;;;;;;2.83;2.25;;;-5.00;99.90;;;;;;5062754;28;20040;-68
2024/01/10 06:48:29;;;;;;;0.75;0.70;;;-5.00;99.90;;;;;;5067354;28;20120;-67
2024/01/10 06:50:55;;;;;;;0.88;0.85;;;-5.10;99.90;;;;;;5078916;28;20051;-67
2024/01/10 06:53:21;;;;;;;1.40;0.88;;;-5.10;99.90;;;;;;5082686;28;20052;-67
2024/01/10 06:55:47;;;;;;;1.33;1.23;;;-5.10;99.90;;;;;;5068441;28;20055;-67
2024/01/10 06:58:12;;;;;;;1.00;0.95;;;-5.10;99.90;;;;;;5062158;28;20479;-67
2024/01/10 07:00:38;;;;;;;4.28;0.75;;;-5.10;99.90;;;;;;5059097;28;20045;-68
2024/01/10 07:03:04;;;;;;;1.02;1.02;;;-5.10;99.90;;;;;;5057827;28;20143;-67
2024/01/10 07:05:31;;;;;;;1.10;0.98;;;-5.10;99.90;;;;;;5067356;28;20132;-67
2024/01/10 07:07:57;;;;;;;1.95;1.85;;;-5.10;99.90;;;;;;5056110;28;20060;-67
2024/01/10 07:10:28;;;;;;;2.67;1.33;;;-5.20;99.90;;;;;;5052716;28;20082;-68
2024/01/10 07:12:54;;;;;;;0.35;0.35;;;-5.20;99.90;;;;;;5059013;28;20032;-67
2024/01/10 07:15:20;;;;;;;0.63;0.55;;;-5.20;99.90;;;;;;5065909;28;20041;-67
2024/01/10 07:17:46;;;;;;;0.85;0.85;;;-5.20;99.90;;;;;;5063183;28;20044;-67
2024/01/10 07:20:12;;;;;;;1.98;1.65;;;-5.20;99.90;;;;;;5063852;28;20040;-67
2024/01/10 07:22:41;;;;;;;2.17;1.65;;;-5.20;99.90;;;;;;5063449;28;20047;-67
2024/01/10 07:25:08;;;;;;;2.72;2.53;;;-5.20;99.90;;;;;;5065720;28;20123;-67
2024/01/10 07:27:33;;;;;;;2.70;0.82;;;-5.20;99.90;;;;;;5061661;28;20044;-68
2024/01/10 07:29:59;;;;;;;0.95;0.95;;;-5.10;99.90;;;;;;5063932;28;20040;-67
2024/01/10 07:32:25;;;;;;;2.92;1.38;;;-5.10;99.90;;;;;;5065661;28;20116;-67
2024/01/10 07:34:51;;;;;;;0.82;0.82;;;-5.10;99.90;;;;;;5060578;28;20550;-67
2024/01/10 07:37:20;;;;;;;4.72;2.30;;;-5.10;99.90;;;;;;5059555;28;20083;-67
2024/01/10 07:39:46;;;;;;;2.90;1.13;;;-5.10;99.90;;;;;;5060614;28;20075;-67
2024/01/10 07:42:12;;;;;;;1.60;1.50;;;-5.10;99.90;;;;;;5046098;28;20067;-67
2024/01/10 07:44:37;;;;;;;1.60;1.50;;;-5.10;99.90;;;;;;5083448;28;20083;-67
2024/01/10 07:47:03;;;;;;;1.15;0.98;;;-5.10;99.90;;;;;;5064542;28;20060;-67
2024/01/10 07:49:29;;;;;;;4.03;1.20;;;-5.10;99.90;;;;;;5066771;28;20033;-67
2024/01/10 07:51:55;;;;;;;1.38;1.25;;;-5.10;99.90;;;;;;5062059;28;20115;-67
2024/01/10 07:54:21;;;;;;;1.00;1.00;;;-5.10;99.90;;;;;;5063391;28;20132;-68
2024/01/10 07:56:46;;;;;;;1.90;1.13;;;-5.10;99.90;;;;;;5070069;28;20033;-67
2024/01/10 07:59:15;;;;;;;4.00;1.90;;;-5.10;99.90;;;;;;5063799;28;20036;-67
2024/01/10 08:01:44;;;;;;;0.95;0.95;;;-5.10;99.90;;;;;;5082618;28;20085;-67
2024/01/10 08:04:10;;;;;;;1.42;1.23;;;-5.10;99.90;;;;;;5059455;28;20120;-67
2024/01/10 08:06:35;;;;;;;0.52;0.52;;;-5.00;99.90;;;;;;5064558;28;20497;-67
2024/01/10 08:09:04;;;;;;;3.58;1.50;;;-5.00;99.90;;;;;;5051073;28;20049;-67
2024/01/10 08:11:29;;;;;;;0.40;0.40;;;-5.00;99.90;;;;;;5054234;28;20028;-67
2024/01/10 08:13:55;;;;;;;1.10;1.10;;;-5.00;99.90;;;;;;5060695;28;20102;-67
2024/01/10 08:16:21;;;;;;;0.15;0.15;;;-5.00;99.90;;;;;;5059372;28;20120;-68
2024/01/10 08:18:46;;;;;;;0.47;0.47;;;-5.00;99.90;;;;;;5064822;28;20127;-67
2024/01/10 08:21:12;;;;;;;0.82;0.82;;;-5.00;99.90;;;;;;5065238;28;20478;-68
2024/01/10 08:23:37;;;;;;;0.55;0.55;;;-5.00;99.90;;;;;;5059503;28;20041;-68
2024/01/10 08:26:08;;;;;;;2.83;0.68;;;-4.90;99.90;;;;;;5064604;28;20032;-68
2024/01/10 08:28:33;;;;;;;3.80;2.15;;;-4.90;99.90;;;;;;5085574;28;20037;-68
2024/01/10 08:30:59;;;;;;;1.08;0.93;;;-4.80;99.90;;;;;;5060660;28;20051;-67
2024/01/10 08:33:25;;;;;;;1.15;1.15;;;-4.80;99.90;;;;;;5063096;28;20063;-67
2024/01/10 08:35:50;;;;;;;2.50;0.75;;;-4.70;99.90;;;;;;5064778;28;20266;-67
2024/01/10 08:38:16;;;;;;;3.83;1.33;;;-4.60;99.90;;;;;;5056349;28;20049;-66
2024/01/10 08:40:41;;;;;;;0.88;0.88;;;-4.60;99.90;;;;;;5063436;28;20044;-67
2024/01/10 08:43:07;;;;;;;2.15;0.95;;;-4.50;99.90;;;;;;5060110;28;20075;-67
2024/01/10 08:45:33;;;;;;;0.40;0.40;;;-4.40;99.90;;;;;;5083995;28;20033;-67
2024/01/10 08:47:59;;;;;;;0.55;0.55;;;-4.40;99.90;;;;;;5081455;28;20370;-67
2024/01/10 08:50:24;;;;;;;1.38;1.30;;;-4.30;99.90;;;;;;5062141;28;20447;-68
2024/01/10 08:52:50;;;;;;;0.90;0.90;;;-4.30;99.90;;;;;;5059673;28;20155;-67
2024/01/10 08:55:15;;;;;;;1.55;1.40;;;-4.30;99.90;;;;;;5049099;28;20439;-68
2024/01/10 08:57:41;;;;;;;0.35;0.35;;;-4.30;99.90;;;;;;5059270;28;20045;-67
2024/01/10 09:00:11;;;;;;;1.05;0.95;;;-4.20;99.90;;;;;;5099091;28;20451;-68
2024/01/10 09:02:37;;;;;;;0.60;0.50;;;-4.10;99.90;;;;;;5062383;28;20522;-68
2024/01/10 09:05:03;;;;;;;11.82;2.25;;;-4.10;99.90;;;;;;5052123;28;20088;-68
2024/01/10 09:07:30;;;;;;;2.67;1.23;;;-4.00;99.90;;;;;;5052150;28;20073;-68
2024/01/10 09:09:55;;;;;;;1.38;1.02;;;-3.90;99.90;;;;;;5086917;28;20466;-68
2024/01/10 09:12:21;;;;;;;2.65;1.38;;;-3.90;99.90;;;;;;5057523;28;20140;-68
2024/01/10 09:14:47;;;;;;;2.13;1.20;;;-3.80;99.90;;;;;;5047495;28;20119;-67
2024/01/10 09:17:12;;;;;;;0.52;0.52;;;-3.80;99.90;;;;;;5060180;28;20071;-68
2024/01/10 09:19:38;;;;;;;0.65;0.65;;;-3.70;99.90;;;;;;5059620;28;20097;-68
2024/01/10 09:22:04;;;;;;;1.10;0.70;;;-3.70;99.90;;;;;;5059227;28;20558;-66
2024/01/10 09:24:29;;;;;;;1.50;1.40;;;-3.70;99.90;;;;;;5062025;28;20103;-67
2024/01/10 09:26:55;;;;;;;0.73;0.73;;;-3.60;99.90;;;;;;5059786;28;20475;-67
2024/01/10 09:29:21;;;;;;;1.27;1.27;;;-3.60;99.90;;;;;;5063071;28;20028;-67
2024/01/10 09:31:47;;;;;;;3.00;0.60;;;-3.50;99.90;;;;;;5095171;28;20036;-67
2024/01/10 09:34:12;;;;;;;2.80;2.58;;;-3.50;99.90;;;;;;5065937;28;20041;-68
2024/01/10 09:36:38;;;;;;;2.50;1.35;;;-3.50;99.90;;;;;;5065819;28;20533;-67
2024/01/10 09:39:05;;;;;;;2.35;2.15;;;-3.40;99.90;;;;;;5067059;28;20040;-69
2024/01/10 09:41:36;;;;;;;1.77;1.67;;;-3.30;99.90;;;;;;5052959;28;20049;-67
2024/01/10 09:44:02;;;;;;;1.27;1.13;;;-3.30;99.90;;;;;;5063315;28;20044;-67
2024/01/10 09:46:29;;;;;;;0.93;0.90;;;-3.20;99.90;;;;;;5067010;28;20063;-68
2024/01/10 09:48:55;;;;;;;1.63;1.52;;;-3.20;99.90;;;;;;5050477;28;20049;-68
2024/01/10 09:51:22;;;;;;;5.18;2.22;;;-3.10;99.90;;;;;;5069315;28;20039;-68
2024/01/10 09:53:51;;;;;;;0.60;0.57;;;-3.10;99.90;;;;;;5050867;28;20077;-67
2024/01/10 09:56:17;;;;;;;2.25;2.05;;;-3.00;99.90;;;;;;5066354;28;20045;-67
2024/01/10 09:58:46;;;;;;;1.80;1.45;;;-3.00;99.90;;;;;;5050558;28;20323;-67
2024/01/10 10:01:12;;;;;;;3.53;1.25;;;-2.90;99.90;;;;;;5050553;28;20431;-68
2024/01/10 10:03:40;;;;;;;7.90;0.75;;;-2.90;99.90;;;;;;5068189;28;20040;-67
2024/01/10 10:06:08;;;;;;;4.43;1.88;;;-2.80;99.90;;;;;;5065353;28;20407;-68
2024/01/10 10:08:33;;;;;;;3.88;2.10;;;-2.80;99.90;;;;;;5062619;28;20032;-68
2024/01/10 10:10:59;;;;;;;0.80;0.77;;;-2.70;99.90;;;;;;5069699;28;20068;-68
2024/01/10 10:13:27;;;;;;;2.10;1.73;;;-2.70;99.90;;;;;;5059885;28;20032;-68
2024/01/10 10:16:03;;;;;;;0.60;0.60;;;-2.60;99.90;;;;;;5066388;28;20047;-67
2024/01/10 10:18:31;;;;;;;3.75;2.17;;;-2.60;99.90;;;;;;5059486;28;20045;-68
2024/01/10 10:21:14;;;;;;;0.77;0.52;;;-2.50;99.90;;;;;;5069190;28;20445;-68
2024/01/10 10:23:42;;;;;;;4.35;1.58;;;-2.50;99.90;;;;;;5094396;27;20110;-69
2024/01/10 10:26:22;;;;;;;0.28;0.28;;;-2.50;99.90;;;;;;5063994;28;20106;-68
2024/01/10 10:28:49;;;;;;;1.95;1.15;;;-2.40;99.90;;;;;;5087483;28;20119;-68
2024/01/10 10:31:17;;;;;;;8.75;1.48;;;-2.40;99.90;;;;;;5063755;28;20036;-68
2024/01/10 10:33:43;;;;;;;1.35;0.68;;;-2.30;99.90;;;;;;5065268;28;20045;-68
2024/01/10 10:36:09;;;;;;;0.40;0.40;;;-2.30;99.90;;;;;;5075960;28;20108;-68
2024/01/10 10:38:36;;;;;;;4.10;1.60;;;-2.30;99.90;;;;;;5076255;28;20479;-68
2024/01/10 10:41:06;;;;;;;1.05;1.05;;;-2.20;99.90;;;;;;5070071;28;20094;-68
2024/01/10 10:43:35;;;;;;;0.80;0.80;;;-2.20;99.90;;;;;;5076059;28;20044;-68
2024/01/10 10:46:01;;;;;;;0.63;0.60;;;-2.10;99.90;;;;;;5067607;28;20579;-68
2024/01/10 10:48:33;;;;;;;1.02;1.02;;;-2.10;99.90;;;;;;5073024;28;20040;-67
2024/01/10 10:51:18;;;;;;;2.15;1.45;;;-2.00;99.90;;;;;;5069093;28;20036;-68
2024/01/10 10:53:45;;;;;;;1.85;1.02;;;-2.00;99.90;;;;;;5071694;28;20044;-68
2024/01/10 10:56:12;;;;;;;1.20;1.17;;;-2.00;99.90;;;;;;5067235;28;20125;-68
2024/01/10 10:58:46;;;;;;;3.20;2.22;;;-1.90;99.90;;;;;;5063858;28;21076;-69
2024/01/10 11:01:14;;;;;;;0.85;0.50;;;-1.90;99.90;;;;;;5057710;28;20045;-68
2024/01/10 11:03:42;;;;;;;2.92;0.93;;;-1.90;99.90;;;;;;5060960;28;20515;-67
2024/01/10 11:06:08;;;;;;;1.45;1.35;;;-1.80;99.90;;;;;;5065489;28;20048;-68
2024/01/10 11:08:46;;;;;;;1.05;0.75;;;-1.80;99.90;;;;;;5062915;28;20048;-67
2024/01/10 11:11:38;;;;;;;0.52;0.40;;;-1.70;99.90;;;;;;5063347;28;20036;-68
2024/01/10 11:14:12;;;;;;;1.48;1.23;;;-1.60;99.90;;;;;;5044015;28;20036;-69
2024/01/10 11:17:07;;;;;;;1.27;0.82;;;-1.60;99.90;;;;;;5062434;28;20036;-68
2024/01/10 11:20:11;;;;;;;1.75;0.43;;;-1.50;99.90;;;;;;5061583;28;20052;-68
2024/01/10 11:22:46;;;;;;;2.38;0.77;;;-1.50;99.90;;;;;;5064146;28;20055;-68
2024/01/10 11:25:11;;;;;;;1.63;1.33;;;-1.40;99.90;;;;;;5062016;28;20040;-68
2024/01/10 11:27:37;;;;;;;1.00;0.90;;;-1.40;99.90;;;;;;5062699;28;20055;-68
2024/01/10 11:30:05;;;;;;;1.00;0.88;;;-1.30;99.90;;;;;;5054215;28;20494;-68
2024/01/10 11:32:33;;;;;;;0.95;0.80;;;-1.30;99.90;;;;;;5064715;28;20182;-68
2024/01/10 11:35:00;;;;;;;2.83;1.15;;;-1.20;99.90;;;;;;5063617;28;20029;-69
2024/01/10 11:37:42;;;;;;;4.18;1.08;;;-1.20;99.90;;;;;;5062005;28;20143;-68
2024/01/10 11:40:11;;;;;;;0.32;0.30;;;-1.10;99.90;;;;;;5064402;28;20213;-68
2024/01/10 11:42:48;;;;;;;3.55;0.90;;;-1.00;99.90;;;;;;5061116;28;20412;-68
2024/01/10 11:45:34;;;;;;;0.80;0.77;;;-1.00;99.90;;;;;;5063252;28;20058;-68
2024/01/10 11:48:00;;;;;;;8.35;2.40;;;-1.00;99.90;;;;;;5054524;28;20076;-68
2024/01/10 11:50:26;;;;;;;0.65;0.65;;;-0.90;99.90;;;;;;5063707;28;20044;-68
2024/01/10 11:52:55;;;;;;;1.23;0.75;;;-0.90;99.90;;;;;;5065054;28;20479;-68
2024/01/10 11:55:46;;;;;;;0.75;0.52;;;-0.90;99.90;;;;;;5058929;28;20083;-68
2024/01/10 11:58:12;;;;;;;1.17;0.98;;;-0.80;99.90;;;;;;5063208;28;20044;-68
2024/01/10 12:00:38;;;;;;;1.40;0.85;;;-0.80;99.90;;;;;;5062905;28;20045;-69
2024/01/10 12:03:04;;;;;;;2.67;0.95;;;-0.80;99.90;;;;;;5094316;28;20102;-69
2024/01/10 12:05:29;;;;;;;2.95;2.00;;;-0.80;99.90;;;;;;5061392;28;20040;-68
2024/01/10 12:07:55;;;;;;;0.35;0.35;;;-0.80;99.90;;;;;;5063369;28;20090;-68
2024/01/10 12:10:21;;;;;;;0.98;0.93;;;-0.70;99.90;;;;;;5055164;28;20041;-69
2024/01/10 12:12:46;;;;;;;0.63;0.63;;;-0.70;99.90;;;;;;5061458;28;20058;-69
2024/01/10 12:15:12;;;;;;;3.08;1.20;;;-0.70;99.90;;;;;;5060984;28;20037;-69
2024/01/10 12:17:37;;;;;;;1.58;1.23;;;-0.70;99.90;;;;;;5066060;28;20040;-68
2024/01/10 12:20:03;;;;;;;2.28;0.82;;;-0.60;99.90;;;;;;5051849;28;20090;-69
2024/01/10 12:22:31;;;;;;;3.33;1.35;;;-0.60;99.90;;;;;;5066459;28;20414;-69
2024/01/10 12:25:04;;;;;;;2.00;1.50;;;-0.60;99.90;;;;;;5056299;28;20040;-70
2024/01/10 12:27:30;;;;;;;0.10;0.10;;;-0.50;99.90;;;;;;5066172;28;20055;-68
2024/01/10 12:29:56;;;;;;;3.65;2.33;;;-0.50;99.90;;;;;;5064674;28;20059;-69
2024/01/10 12:32:25;;;;;;;0.50;0.50;;;-0.50;99.90;;;;;;5055394;28;20033;-70
2024/01/10 12:34:59;;;;;;;2.60;2.08;;;-0.50;99.90;;;;;;5062767;28;20048;-69
2024/01/10 12:37:25;;;;;;;1.13;0.95;;;-0.50;99.90;;;;;;5051389;28;20036;-69
2024/01/10 12:39:50;;;;;;;0.73;0.73;;;-0.40;99.90;;;;;;5061259;28;20048;-69
2024/01/10 12:42:16;;;;;;;0.93;0.93;;;-0.40;99.90;;;;;;5061928;28;20044;-68
2024/01/10 12:44:46;;;;;;;0.60;0.60;;;-0.40;99.90;;;;;;5061958;28;20044;-69